sensor_id;sensor_type;location;lat;lon;timestamp;pressure;altitude;pressure_sealevel;temperature;humidity
10992;BME280;5549;47.028;15.514;2023-12-04T00:02:01;97277.00;;;-1.97;64.35
10992;BME280;5549;47.028;15.514;2023-12-04T00:04:29;97274.38;;;-1.95;64.53
10992;BME280;5549;47.028;15.514;2023-12-04T00:06:57;97274.59;;;-2.04;64.54
10992;BME280;5549;47.028;15.514;2023-12-04T00:09:25;97277.09;;;-2.01;64.48
10992;BME280;5549;47.028;15.514;2023-12-04T00:11:55;97272.81;;;-2.02;64.55
10992;BME280;5549;47.028;15.514;2023-12-04T00:14:25;97272.97;;;-2.08;64.59
10992;BME280;5549;47.028;15.514;2023-12-04T00:16:58;97269.66;;;-2.13;64.39
10992;BME280;5549;47.028;15.514;2023-12-04T00:19:27;97270.84;;;-2.28;65.29
10992;BME280;5549;47.028;15.514;2023-12-04T00:21:55;97275.84;;;-2.22;64.72
10992;BME280;5549;47.028;15.514;2023-12-04T00:24:23;97267.09;;;-2.13;64.40
10992;BME280;5549;47.028;15.514;2023-12-04T00:26:51;97276.34;;;-2.06;64.55
10992;BME280;5549;47.028;15.514;2023-12-04T00:29:19;97272.94;;;-2.07;64.10
10992;BME280;5549;47.028;15.514;2023-12-04T00:31:49;97272.81;;;-2.02;64.07
10992;BME280;5549;47.028;15.514;2023-12-04T00:34:16;97266.72;;;-1.98;63.98
10992;BME280;5549;47.028;15.514;2023-12-04T00:36:45;97268.53;;;-2.02;63.91
10992;BME280;5549;47.028;15.514;2023-12-04T00:39:13;97275.84;;;-2.22;64.19
10992;BME280;5549;47.028;15.514;2023-12-04T00:41:40;97267.28;;;-2.22;64.64
10992;BME280;5549;47.028;15.514;2023-12-04T00:44:11;97273.19;;;-2.17;64.18
10992;BME280;5549;47.028;15.514;2023-12-04T00:46:39;97264.78;;;-2.26;64.42
10992;BME280;5549;47.028;15.514;2023-12-04T00:49:09;97268.78;;;-2.51;65.76
10992;BME280;5549;47.028;15.514;2023-12-04T00:51:39;97267.00;;;-2.49;65.41
10992;BME280;5549;47.028;15.514;2023-12-04T00:54:07;97258.63;;;-2.57;65.69
10992;BME280;5549;47.028;15.514;2023-12-04T00:56:38;97271.66;;;-2.66;66.16
10992;BME280;5549;47.028;15.514;2023-12-04T00:59:08;97274.28;;;-2.69;65.88
10992;BME280;5549;47.028;15.514;2023-12-04T01:01:36;97266.78;;;-2.78;67.35
10992;BME280;5549;47.028;15.514;2023-12-04T01:04:04;97272.09;;;-2.87;66.94
10992;BME280;5549;47.028;15.514;2023-12-04T01:06:35;97275.69;;;-2.96;67.99
10992;BME280;5549;47.028;15.514;2023-12-04T01:09:03;97270.91;;;-3.14;68.42
10992;BME280;5549;47.028;15.514;2023-12-04T01:11:31;97267.06;;;-2.94;67.73
10992;BME280;5549;47.028;15.514;2023-12-04T01:13:59;97258.03;;;-3.13;68.76
10992;BME280;5549;47.028;15.514;2023-12-04T01:16:27;97256.09;;;-3.02;68.71
10992;BME280;5549;47.028;15.514;2023-12-04T01:18:55;97255.91;;;-2.93;68.00
10992;BME280;5549;47.028;15.514;2023-12-04T01:21:24;97261.41;;;-3.11;68.14
10992;BME280;5549;47.028;15.514;2023-12-04T01:23:53;97252.78;;;-3.07;68.28
10992;BME280;5549;47.028;15.514;2023-12-04T01:26:21;97246.94;;;-3.15;68.64
10992;BME280;5549;47.028;15.514;2023-12-04T01:28:50;97246.72;;;-3.04;68.85
10992;BME280;5549;47.028;15.514;2023-12-04T01:31:17;97252.34;;;-2.85;67.98
10992;BME280;5549;47.028;15.514;2023-12-04T01:33:45;97246.13;;;-2.74;66.69
10992;BME280;5549;47.028;15.514;2023-12-04T01:36:14;97248.41;;;-2.60;66.40
10992;BME280;5549;47.028;15.514;2023-12-04T01:38:42;97255.16;;;-2.56;65.87
10992;BME280;5549;47.028;15.514;2023-12-04T01:41:12;97259.09;;;-2.40;65.57
10992;BME280;5549;47.028;15.514;2023-12-04T01:43:39;97252.16;;;-2.36;66.09
10992;BME280;5549;47.028;15.514;2023-12-04T01:46:07;97251.25;;;-2.34;65.69
10992;BME280;5549;47.028;15.514;2023-12-04T01:48:38;97258.66;;;-2.20;65.68
10992;BME280;5549;47.028;15.514;2023-12-04T01:51:09;97246.53;;;-2.15;65.07
10992;BME280;5549;47.028;15.514;2023-12-04T01:53:40;97242.06;;;-2.07;65.14
10992;BME280;5549;47.028;15.514;2023-12-04T01:56:11;97241.25;;;-2.09;64.55
10992;BME280;5549;47.028;15.514;2023-12-04T01:58:39;97239.47;;;-2.07;64.12
10992;BME280;5549;47.028;15.514;2023-12-04T02:01:07;97234.25;;;-2.04;64.24
10992;BME280;5549;47.028;15.514;2023-12-04T02:03:40;97236.75;;;-2.01;63.90
10992;BME280;5549;47.028;15.514;2023-12-04T02:06:09;97236.63;;;-1.95;63.44
10992;BME280;5549;47.028;15.514;2023-12-04T02:08:40;97229.75;;;-1.94;63.15
10992;BME280;5549;47.028;15.514;2023-12-04T02:11:09;97223.75;;;-1.95;62.80
10992;BME280;5549;47.028;15.514;2023-12-04T02:13:39;97218.84;;;-2.05;63.22
10992;BME280;5549;47.028;15.514;2023-12-04T02:16:10;97225.69;;;-2.04;63.09
10992;BME280;5549;47.028;15.514;2023-12-04T02:18:40;97220.50;;;-2.03;62.92
10992;BME280;5549;47.028;15.514;2023-12-04T02:21:08;97215.69;;;-2.16;62.84
10992;BME280;5549;47.028;15.514;2023-12-04T02:23:38;97211.72;;;-2.30;63.12
10992;BME280;5549;47.028;15.514;2023-12-04T02:26:12;97208.50;;;-2.39;63.29
10992;BME280;5549;47.028;15.514;2023-12-04T02:28:42;97206.44;;;-2.62;64.22
10992;BME280;5549;47.028;15.514;2023-12-04T02:31:13;97209.72;;;-2.55;64.04
10992;BME280;5549;47.028;15.514;2023-12-04T02:33:44;97212.34;;;-2.57;63.61
10992;BME280;5549;47.028;15.514;2023-12-04T02:36:13;97207.25;;;-2.60;64.34
10992;BME280;5549;47.028;15.514;2023-12-04T02:38:41;97205.66;;;-2.66;64.29
10992;BME280;5549;47.028;15.514;2023-12-04T02:41:10;97212.59;;;-2.69;64.07
10992;BME280;5549;47.028;15.514;2023-12-04T02:43:38;97213.47;;;-2.70;64.64
10992;BME280;5549;47.028;15.514;2023-12-04T02:46:07;97212.53;;;-2.66;64.47
10992;BME280;5549;47.028;15.514;2023-12-04T02:48:35;97218.38;;;-2.60;64.27
10992;BME280;5549;47.028;15.514;2023-12-04T02:51:03;97219.09;;;-2.53;63.61
10992;BME280;5549;47.028;15.514;2023-12-04T02:53:31;97220.69;;;-2.47;63.74
10992;BME280;5549;47.028;15.514;2023-12-04T02:55:58;97218.84;;;-2.41;63.39
10992;BME280;5549;47.028;15.514;2023-12-04T02:58:30;97210.16;;;-2.37;63.27
10992;BME280;5549;47.028;15.514;2023-12-04T03:01:00;97211.03;;;-2.38;63.02
10992;BME280;5549;47.028;15.514;2023-12-04T03:03:28;97212.06;;;-2.45;63.28
10992;BME280;5549;47.028;15.514;2023-12-04T03:05:55;97210.44;;;-2.49;63.14
10992;BME280;5549;47.028;15.514;2023-12-04T03:08:23;97206.91;;;-2.45;63.15
10992;BME280;5549;47.028;15.514;2023-12-04T03:10:51;97210.19;;;-2.38;62.31
10992;BME280;5549;47.028;15.514;2023-12-04T03:13:19;97204.25;;;-2.40;62.63
10992;BME280;5549;47.028;15.514;2023-12-04T03:15:51;97197.47;;;-2.44;62.57
10992;BME280;5549;47.028;15.514;2023-12-04T03:18:25;97200.91;;;-2.44;62.45
10992;BME280;5549;47.028;15.514;2023-12-04T03:20:57;97205.84;;;-2.35;62.17
10992;BME280;5549;47.028;15.514;2023-12-04T03:23:32;97206.69;;;-2.34;61.90
10992;BME280;5549;47.028;15.514;2023-12-04T03:26:04;97202.34;;;-2.32;61.73
10992;BME280;5549;47.028;15.514;2023-12-04T03:28:37;97200.63;;;-2.32;61.93
10992;BME280;5549;47.028;15.514;2023-12-04T03:31:08;97197.38;;;-2.40;62.40
10992;BME280;5549;47.028;15.514;2023-12-04T03:33:39;97201.84;;;-2.48;62.45
10992;BME280;5549;47.028;15.514;2023-12-04T03:36:09;97199.50;;;-2.59;63.08
10992;BME280;5549;47.028;15.514;2023-12-04T03:38:36;97200.00;;;-2.81;64.05
10992;BME280;5549;47.028;15.514;2023-12-04T03:41:04;97205.06;;;-2.77;63.81
10992;BME280;5549;47.028;15.514;2023-12-04T03:43:40;97195.53;;;-2.72;63.13
10992;BME280;5549;47.028;15.514;2023-12-04T03:46:12;97193.03;;;-2.76;63.84
10992;BME280;5549;47.028;15.514;2023-12-04T03:48:40;97181.88;;;-2.75;63.60
10992;BME280;5549;47.028;15.514;2023-12-04T03:51:08;97191.16;;;-2.68;63.67
10992;BME280;5549;47.028;15.514;2023-12-04T03:53:35;97187.91;;;-2.76;63.60
10992;BME280;5549;47.028;15.514;2023-12-04T03:56:04;97184.91;;;-2.97;64.52
10992;BME280;5549;47.028;15.514;2023-12-04T03:58:32;97178.84;;;-2.93;64.00
10992;BME280;5549;47.028;15.514;2023-12-04T04:01:00;97172.72;;;-2.87;63.30
10992;BME280;5549;47.028;15.514;2023-12-04T04:03:31;97176.81;;;-2.78;63.37
10992;BME280;5549;47.028;15.514;2023-12-04T04:05:59;97170.91;;;-2.82;63.74
10992;BME280;5549;47.028;15.514;2023-12-04T04:08:27;97166.78;;;-2.91;63.33
10992;BME280;5549;47.028;15.514;2023-12-04T04:10:57;97169.28;;;-2.86;63.73
10992;BME280;5549;47.028;15.514;2023-12-04T04:13:28;97166.66;;;-2.84;63.22
10992;BME280;5549;47.028;15.514;2023-12-04T04:15:58;97170.06;;;-2.84;63.18
10992;BME280;5549;47.028;15.514;2023-12-04T04:18:25;97165.81;;;-2.85;63.52
10992;BME280;5549;47.028;15.514;2023-12-04T04:20:55;97173.63;;;-2.89;63.45
10992;BME280;5549;47.028;15.514;2023-12-04T04:23:26;97171.94;;;-2.91;63.52
10992;BME280;5549;47.028;15.514;2023-12-04T04:25:54;97170.94;;;-2.83;63.28
10992;BME280;5549;47.028;15.514;2023-12-04T04:28:22;97173.41;;;-2.79;63.24
10992;BME280;5549;47.028;15.514;2023-12-04T04:30:50;97171.03;;;-2.88;63.25
10992;BME280;5549;47.028;15.514;2023-12-04T04:33:18;97171.19;;;-2.96;63.64
10992;BME280;5549;47.028;15.514;2023-12-04T04:35:47;97171.19;;;-2.96;63.75
10992;BME280;5549;47.028;15.514;2023-12-04T04:38:17;97170.50;;;-3.04;63.28
10992;BME280;5549;47.028;15.514;2023-12-04T04:40:45;97177.28;;;-3.00;63.67
10992;BME280;5549;47.028;15.514;2023-12-04T04:43:13;97178.06;;;-2.96;62.86
10992;BME280;5549;47.028;15.514;2023-12-04T04:45:41;97180.59;;;-2.95;62.88
10992;BME280;5549;47.028;15.514;2023-12-04T04:48:08;97187.47;;;-2.97;63.07
10992;BME280;5549;47.028;15.514;2023-12-04T04:50:36;97185.78;;;-2.98;62.64
10992;BME280;5549;47.028;15.514;2023-12-04T04:53:03;97181.53;;;-2.99;63.09
10992;BME280;5549;47.028;15.514;2023-12-04T04:55:33;97175.56;;;-3.01;62.86
10992;BME280;5549;47.028;15.514;2023-12-04T04:58:01;97173.88;;;-3.02;62.86
10992;BME280;5549;47.028;15.514;2023-12-04T05:00:29;97177.47;;;-3.09;63.07
10992;BME280;5549;47.028;15.514;2023-12-04T05:02:56;97176.56;;;-3.06;62.66
10992;BME280;5549;47.028;15.514;2023-12-04T05:05:24;97174.84;;;-3.07;62.95
10992;BME280;5549;47.028;15.514;2023-12-04T05:07:51;97178.63;;;-3.24;63.33
10992;BME280;5549;47.028;15.514;2023-12-04T05:10:19;97179.28;;;-3.14;63.14
10992;BME280;5549;47.028;15.514;2023-12-04T05:12:49;97179.28;;;-3.14;62.75
10992;BME280;5549;47.028;15.514;2023-12-04T05:15:17;97178.44;;;-3.14;63.07
10992;BME280;5549;47.028;15.514;2023-12-04T05:17:45;97175.78;;;-3.10;62.93
10992;BME280;5549;47.028;15.514;2023-12-04T05:20:13;97182.94;;;-3.26;62.87
10992;BME280;5549;47.028;15.514;2023-12-04T05:22:41;97181.28;;;-3.28;63.49
10992;BME280;5549;47.028;15.514;2023-12-04T05:25:09;97176.84;;;-3.20;63.17
10992;BME280;5549;47.028;15.514;2023-12-04T05:27:37;97190.66;;;-3.27;63.43
10992;BME280;5549;47.028;15.514;2023-12-04T05:30:08;97188.28;;;-3.36;63.48
10992;BME280;5549;47.028;15.514;2023-12-04T05:32:36;97184.75;;;-3.31;64.11
10992;BME280;5549;47.028;15.514;2023-12-04T05:35:04;97185.72;;;-3.36;63.31
10992;BME280;5549;47.028;15.514;2023-12-04T05:37:35;97185.66;;;-3.33;63.08
10992;BME280;5549;47.028;15.514;2023-12-04T05:40:05;97186.72;;;-3.43;63.74
10992;BME280;5549;47.028;15.514;2023-12-04T05:42:32;97185.78;;;-3.39;63.99
10992;BME280;5549;47.028;15.514;2023-12-04T05:45:00;97187.31;;;-3.31;63.35
10992;BME280;5549;47.028;15.514;2023-12-04T05:47:29;97181.25;;;-3.27;63.50
10992;BME280;5549;47.028;15.514;2023-12-04T05:49:57;97182.22;;;-3.32;63.25
10992;BME280;5549;47.028;15.514;2023-12-04T05:52:26;97177.19;;;-3.38;63.22
10992;BME280;5549;47.028;15.514;2023-12-04T05:54:53;97172.81;;;-3.33;63.02
10992;BME280;5549;47.028;15.514;2023-12-04T05:57:21;97172.94;;;-3.39;63.47
10992;BME280;5549;47.028;15.514;2023-12-04T05:59:49;97173.13;;;-3.51;63.49
10992;BME280;5549;47.028;15.514;2023-12-04T06:02:18;97171.44;;;-3.52;63.38
10992;BME280;5549;47.028;15.514;2023-12-04T06:04:47;97169.75;;;-3.53;63.15
10992;BME280;5549;47.028;15.514;2023-12-04T06:07:15;97177.34;;;-3.46;63.36
10992;BME280;5549;47.028;15.514;2023-12-04T06:09:42;97172.09;;;-3.40;63.30
10992;BME280;5549;47.028;15.514;2023-12-04T06:12:12;97177.09;;;-3.34;63.03
10992;BME280;5549;47.028;15.514;2023-12-04T06:14:39;97176.94;;;-3.26;62.89
10992;BME280;5549;47.028;15.514;2023-12-04T06:17:07;97182.09;;;-3.26;62.77
10992;BME280;5549;47.028;15.514;2023-12-04T06:19:34;97168.28;;;-3.20;62.69
10992;BME280;5549;47.028;15.514;2023-12-04T06:22:04;97172.63;;;-3.24;62.41
10992;BME280;5549;47.028;15.514;2023-12-04T06:24:32;97177.78;;;-3.24;62.69
10992;BME280;5549;47.028;15.514;2023-12-04T06:27:00;97179.41;;;-3.20;62.48
10992;BME280;5549;47.028;15.514;2023-12-04T06:29:28;97174.13;;;-3.14;62.00
10992;BME280;5549;47.028;15.514;2023-12-04T06:31:57;97175.78;;;-3.10;62.60
10992;BME280;5549;47.028;15.514;2023-12-04T06:34:25;97174.66;;;-2.98;61.99
10992;BME280;5549;47.028;15.514;2023-12-04T06:36:55;97180.34;;;-2.84;62.34
10992;BME280;5549;47.028;15.514;2023-12-04T06:39:25;97168.75;;;-2.63;61.78
10992;BME280;5549;47.028;15.514;2023-12-04T06:42:00;97169.19;;;-2.44;61.36
10992;BME280;5549;47.028;15.514;2023-12-04T06:44:28;97172.19;;;-2.26;60.68
10992;BME280;5549;47.028;15.514;2023-12-04T06:47:00;97166.66;;;-2.10;60.00
10992;BME280;5549;47.028;15.514;2023-12-04T06:49:31;97162.16;;;-2.02;59.60
10992;BME280;5549;47.028;15.514;2023-12-04T06:52:01;97156.63;;;-1.87;59.21
10992;BME280;5549;47.028;15.514;2023-12-04T06:54:30;97154.97;;;-1.89;59.43
10992;BME280;5549;47.028;15.514;2023-12-04T06:56:58;97154.19;;;-1.57;58.74
10992;BME280;5549;47.028;15.514;2023-12-04T06:59:25;97145.28;;;-1.46;58.22
10992;BME280;5549;47.028;15.514;2023-12-04T07:01:53;97140.97;;;-0.30;70.57
10992;BME280;5549;47.028;15.514;2023-12-04T07:04:21;97139.22;;;0.73;74.74
10992;BME280;5549;47.028;15.514;2023-12-04T07:06:49;97130.16;;;1.53;73.69
10992;BME280;5549;47.028;15.514;2023-12-04T07:09:17;97133.50;;;2.20;71.59
10992;BME280;5549;47.028;15.514;2023-12-04T07:11:48;97130.72;;;2.84;69.23
10992;BME280;5549;47.028;15.514;2023-12-04T07:14:15;97132.28;;;3.26;66.10
10992;BME280;5549;47.028;15.514;2023-12-04T07:16:43;97141.69;;;3.66;63.63
10992;BME280;5549;47.028;15.514;2023-12-04T07:19:11;97130.38;;;4.03;61.08
10992;BME280;5549;47.028;15.514;2023-12-04T07:21:40;97131.00;;;4.26;59.34
10992;BME280;5549;47.028;15.514;2023-12-04T07:24:08;97124.41;;;4.53;57.60
10992;BME280;5549;47.028;15.514;2023-12-04T07:26:36;97125.75;;;4.77;55.78
10992;BME280;5549;47.028;15.514;2023-12-04T07:29:05;97123.00;;;4.96;54.38
10992;BME280;5549;47.028;15.514;2023-12-04T07:31:35;97126.81;;;5.06;52.67
10992;BME280;5549;47.028;15.514;2023-12-04T07:34:03;97119.34;;;5.16;51.91
10992;BME280;5549;47.028;15.514;2023-12-04T07:36:31;97113.50;;;5.28;52.56
10992;BME280;5549;47.028;15.514;2023-12-04T07:38:58;97114.88;;;5.35;51.88
10992;BME280;5549;47.028;15.514;2023-12-04T07:41:26;97113.44;;;5.45;50.21
10992;BME280;5549;47.028;15.514;2023-12-04T07:43:54;97117.63;;;5.64;50.87
10992;BME280;5549;47.028;15.514;2023-12-04T07:46:23;97119.03;;;5.85;50.97
10992;BME280;5549;47.028;15.514;2023-12-04T07:48:51;97115.34;;;6.05;50.17
10992;BME280;5549;47.028;15.514;2023-12-04T07:51:19;97109.41;;;6.17;49.33
10992;BME280;5549;47.028;15.514;2023-12-04T07:53:46;97110.28;;;6.32;49.42
10992;BME280;5549;47.028;15.514;2023-12-04T07:56:17;97115.63;;;6.44;48.82
10992;BME280;5549;47.028;15.514;2023-12-04T07:58:44;97104.56;;;6.55;46.80
10992;BME280;5549;47.028;15.514;2023-12-04T08:01:12;97114.38;;;6.80;48.30
10992;BME280;5549;47.028;15.514;2023-12-04T08:03:40;97112.78;;;6.92;46.60
10992;BME280;5549;47.028;15.514;2023-12-04T08:06:08;97105.63;;;7.10;46.49
10992;BME280;5549;47.028;15.514;2023-12-04T08:08:38;97111.13;;;7.33;46.20
10992;BME280;5549;47.028;15.514;2023-12-04T08:11:06;97114.25;;;7.53;45.58
10992;BME280;5549;47.028;15.514;2023-12-04T08:13:33;97108.59;;;7.73;44.52
10992;BME280;5549;47.028;15.514;2023-12-04T08:16:01;97103.53;;;7.84;42.33
10992;BME280;5549;47.028;15.514;2023-12-04T08:18:29;97110.09;;;7.77;42.34
10992;BME280;5549;47.028;15.514;2023-12-04T08:21:00;97110.97;;;7.90;43.06
10992;BME280;5549;47.028;15.514;2023-12-04T08:23:30;97097.09;;;8.02;42.15
10992;BME280;5549;47.028;15.514;2023-12-04T08:25:58;97091.50;;;8.21;42.20
10992;BME280;5549;47.028;15.514;2023-12-04T08:28:26;97092.41;;;8.47;41.92
10992;BME280;5549;47.028;15.514;2023-12-04T08:30:53;97083.97;;;8.69;40.96
10992;BME280;5549;47.028;15.514;2023-12-04T08:33:21;97071.63;;;8.84;40.57
10992;BME280;5549;47.028;15.514;2023-12-04T08:35:48;97070.34;;;9.02;40.79
10992;BME280;5549;47.028;15.514;2023-12-04T08:38:18;97064.34;;;9.13;40.98
10992;BME280;5549;47.028;15.514;2023-12-04T08:40:46;97066.56;;;9.43;40.57
10992;BME280;5549;47.028;15.514;2023-12-04T08:43:14;97064.03;;;9.54;39.98
10992;BME280;5549;47.028;15.514;2023-12-04T08:45:41;97073.47;;;9.56;39.73
10992;BME280;5549;47.028;15.514;2023-12-04T08:48:09;97067.19;;;9.46;35.89
10992;BME280;5549;47.028;15.514;2023-12-04T08:50:36;97066.47;;;8.95;36.42
10992;BME280;5549;47.028;15.514;2023-12-04T08:53:04;97070.16;;;8.67;36.52
10992;BME280;5549;47.028;15.514;2023-12-04T08:55:33;97076.03;;;8.31;36.76
10992;BME280;5549;47.028;15.514;2023-12-04T08:58:01;97091.47;;;8.09;36.89
10992;BME280;5549;47.028;15.514;2023-12-04T09:00:30;97082.25;;;8.03;37.20
10992;BME280;5549;47.028;15.514;2023-12-04T09:02:57;97085.16;;;7.98;37.48
10992;BME280;5549;47.028;15.514;2023-12-04T09:05:25;97075.50;;;7.86;37.02
10992;BME280;5549;47.028;15.514;2023-12-04T09:07:53;97077.09;;;7.62;37.99
10992;BME280;5549;47.028;15.514;2023-12-04T09:10:20;97076.16;;;7.63;37.90
10992;BME280;5549;47.028;15.514;2023-12-04T09:12:49;97070.72;;;7.66;37.16
10992;BME280;5549;47.028;15.514;2023-12-04T09:15:17;97076.47;;;7.44;37.55
10992;BME280;5549;47.028;15.514;2023-12-04T09:17:44;97075.00;;;7.40;37.82
10992;BME280;5549;47.028;15.514;2023-12-04T09:20:17;97072.84;;;7.47;38.11
10992;BME280;5549;47.028;15.514;2023-12-04T09:22:44;97073.03;;;7.44;38.37
10992;BME280;5549;47.028;15.514;2023-12-04T09:25:15;97062.25;;;7.62;38.07
10992;BME280;5549;47.028;15.514;2023-12-04T09:27:43;97051.38;;;7.68;37.88
10992;BME280;5549;47.028;15.514;2023-12-04T09:30:13;97040.72;;;7.71;38.22
10992;BME280;5549;47.028;15.514;2023-12-04T09:32:40;97028.63;;;7.83;38.38
10992;BME280;5549;47.028;15.514;2023-12-04T09:35:10;97019.66;;;7.87;38.10
10992;BME280;5549;47.028;15.514;2023-12-04T09:37:40;97023.75;;;7.91;38.04
10992;BME280;5549;47.028;15.514;2023-12-04T09:40:10;97021.66;;;7.96;37.81
10992;BME280;5549;47.028;15.514;2023-12-04T09:42:39;97018.97;;;8.11;37.34
10992;BME280;5549;47.028;15.514;2023-12-04T09:45:09;97011.19;;;7.96;37.28
10992;BME280;5549;47.028;15.514;2023-12-04T09:47:38;97013.94;;;7.68;37.83
10992;BME280;5549;47.028;15.514;2023-12-04T09:50:08;97007.91;;;7.80;37.31
10992;BME280;5549;47.028;15.514;2023-12-04T09:52:38;97004.81;;;8.00;38.19
10992;BME280;5549;47.028;15.514;2023-12-04T09:55:10;97005.47;;;8.29;38.69
10992;BME280;5549;47.028;15.514;2023-12-04T09:57:38;96997.97;;;8.38;37.71
10992;BME280;5549;47.028;15.514;2023-12-04T10:00:11;96995.16;;;8.53;36.85
10992;BME280;5549;47.028;15.514;2023-12-04T10:02:42;96988.97;;;8.54;37.58
10992;BME280;5549;47.028;15.514;2023-12-04T10:05:10;96984.66;;;8.66;37.48
10992;BME280;5549;47.028;15.514;2023-12-04T10:07:38;96979.53;;;8.77;36.91
10992;BME280;5549;47.028;15.514;2023-12-04T10:10:07;96971.66;;;8.90;36.65
10992;BME280;5549;47.028;15.514;2023-12-04T10:12:36;96962.72;;;9.05;36.33
10992;BME280;5549;47.028;15.514;2023-12-04T10:15:28;96955.97;;;9.14;36.77
10992;BME280;5549;47.028;15.514;2023-12-04T10:17:57;96946.13;;;9.17;36.27
10992;BME280;5549;47.028;15.514;2023-12-04T10:20:25;96948.66;;;9.06;37.28
10992;BME280;5549;47.028;15.514;2023-12-04T10:22:54;96944.03;;;9.10;36.95
10992;BME280;5549;47.028;15.514;2023-12-04T10:25:26;96942.75;;;8.91;35.94
10992;BME280;5549;47.028;15.514;2023-12-04T10:27:55;96941.88;;;8.67;35.31
10992;BME280;5549;47.028;15.514;2023-12-04T10:30:34;96936.50;;;8.05;36.92
10992;BME280;5549;47.028;15.514;2023-12-04T10:33:05;96932.38;;;7.63;36.88
10992;BME280;5549;47.028;15.514;2023-12-04T10:35:35;96924.84;;;7.58;37.57
10992;BME280;5549;47.028;15.514;2023-12-04T10:38:03;96919.97;;;7.79;38.54
10992;BME280;5549;47.028;15.514;2023-12-04T10:40:34;96912.88;;;7.94;38.20
10992;BME280;5549;47.028;15.514;2023-12-04T10:43:12;96921.53;;;8.20;38.75
10992;BME280;5549;47.028;15.514;2023-12-04T10:45:41;96910.47;;;7.91;39.10
10992;BME280;5549;47.028;15.514;2023-12-04T10:48:12;96899.38;;;7.87;40.15
10992;BME280;5549;47.028;15.514;2023-12-04T10:50:42;96900.00;;;7.78;39.34
10992;BME280;5549;47.028;15.514;2023-12-04T10:53:13;96909.38;;;7.55;39.22
10992;BME280;5549;47.028;15.514;2023-12-04T10:55:45;96901.44;;;7.57;40.88
10992;BME280;5549;47.028;15.514;2023-12-04T10:58:14;96895.97;;;7.47;39.64
10992;BME280;5549;47.028;15.514;2023-12-04T11:00:46;96895.22;;;7.32;40.01
10992;BME280;5549;47.028;15.514;2023-12-04T11:03:21;96893.47;;;7.06;40.79
10992;BME280;5549;47.028;15.514;2023-12-04T11:05:55;96892.94;;;7.01;41.96
10992;BME280;5549;47.028;15.514;2023-12-04T11:08:23;96893.69;;;6.89;42.09
10992;BME280;5549;47.028;15.514;2023-12-04T11:10:58;96885.97;;;6.46;42.73
10992;BME280;5549;47.028;15.514;2023-12-04T11:13:30;96879.75;;;6.20;40.93
10992;BME280;5549;47.028;15.514;2023-12-04T11:16:02;96891.84;;;5.93;42.82
10992;BME280;5549;47.028;15.514;2023-12-04T11:18:38;96886.31;;;5.09;42.36
10992;BME280;5549;47.028;15.514;2023-12-04T11:21:09;96888.81;;;4.80;45.48
10992;BME280;5549;47.028;15.514;2023-12-04T11:23:40;96891.94;;;4.56;45.77
10992;BME280;5549;47.028;15.514;2023-12-04T11:26:10;96887.81;;;4.51;47.40
10992;BME280;5549;47.028;15.514;2023-12-04T11:28:38;96893.09;;;4.50;48.21
10992;BME280;5549;47.028;15.514;2023-12-04T11:31:31;96871.44;;;4.18;47.55
10992;BME280;5549;47.028;15.514;2023-12-04T11:34:04;96874.38;;;3.79;49.15
10992;BME280;5549;47.028;15.514;2023-12-04T11:36:34;96867.84;;;3.72;50.31
10992;BME280;5549;47.028;15.514;2023-12-04T11:39:02;96861.59;;;3.41;50.24
10992;BME280;5549;47.028;15.514;2023-12-04T11:41:36;96858.25;;;3.05;51.06
10992;BME280;5549;47.028;15.514;2023-12-04T11:44:04;96853.34;;;2.99;50.64
10992;BME280;5549;47.028;15.514;2023-12-04T11:46:55;96846.19;;;3.04;51.01
10992;BME280;5549;47.028;15.514;2023-12-04T11:49:30;96845.66;;;2.97;50.94
10992;BME280;5549;47.028;15.514;2023-12-04T11:51:58;96832.91;;;2.93;51.59
10992;BME280;5549;47.028;15.514;2023-12-04T11:54:28;96837.72;;;3.17;51.91
10992;BME280;5549;47.028;15.514;2023-12-04T11:57:20;96837.16;;;3.45;51.20
10992;BME280;5549;47.028;15.514;2023-12-04T11:59:48;96830.59;;;3.56;50.50
10992;BME280;5549;47.028;15.514;2023-12-04T12:02:16;96830.53;;;3.57;50.81
10992;BME280;5549;47.028;15.514;2023-12-04T12:04:46;96835.94;;;3.35;50.98
10992;BME280;5549;47.028;15.514;2023-12-04T12:07:15;96831.22;;;3.09;51.79
10992;BME280;5549;47.028;15.514;2023-12-04T12:09:42;96836.19;;;3.13;52.17
10992;BME280;5549;47.028;15.514;2023-12-04T12:12:10;96837.34;;;3.08;52.38
10992;BME280;5549;47.028;15.514;2023-12-04T12:14:38;96829.16;;;3.15;51.70
10992;BME280;5549;47.028;15.514;2023-12-04T12:17:07;96820.25;;;3.04;52.46
10992;BME280;5549;47.028;15.514;2023-12-04T12:19:37;96830.78;;;3.18;52.01
10992;BME280;5549;47.028;15.514;2023-12-04T12:22:08;96818.72;;;3.00;51.62
10992;BME280;5549;47.028;15.514;2023-12-04T12:24:36;96813.84;;;2.94;52.62
10992;BME280;5549;47.028;15.514;2023-12-04T12:27:04;96814.00;;;2.90;53.12
10992;BME280;5549;47.028;15.514;2023-12-04T12:29:32;96804.84;;;2.83;53.91
10992;BME280;5549;47.028;15.514;2023-12-04T12:31:59;96795.06;;;2.88;53.45
10992;BME280;5549;47.028;15.514;2023-12-04T12:34:28;96800.03;;;2.93;53.36
10992;BME280;5549;47.028;15.514;2023-12-04T12:36:55;96780.72;;;2.81;53.77
10992;BME280;5549;47.028;15.514;2023-12-04T12:39:26;96769.44;;;2.82;54.44
10992;BME280;5549;47.028;15.514;2023-12-04T12:41:55;96775.38;;;2.67;54.86
10992;BME280;5549;47.028;15.514;2023-12-04T12:44:24;96771.72;;;2.54;54.08
10992;BME280;5549;47.028;15.514;2023-12-04T12:46:53;96768.81;;;2.43;54.67
10992;BME280;5549;47.028;15.514;2023-12-04T12:49:21;96765.22;;;2.45;55.35
10992;BME280;5549;47.028;15.514;2023-12-04T12:51:48;96766.38;;;2.40;55.23
10992;BME280;5549;47.028;15.514;2023-12-04T12:54:16;96782.22;;;2.34;54.90
10992;BME280;5549;47.028;15.514;2023-12-04T12:56:47;96763.22;;;2.33;55.54
10992;BME280;5549;47.028;15.514;2023-12-04T12:59:16;96761.47;;;2.34;54.54
10992;BME280;5549;47.028;15.514;2023-12-04T13:01:44;96759.91;;;2.48;54.71
10992;BME280;5549;47.028;15.514;2023-12-04T13:04:14;96754.63;;;2.50;54.36
10992;BME280;5549;47.028;15.514;2023-12-04T13:06:42;96741.50;;;2.36;55.38
10992;BME280;5549;47.028;15.514;2023-12-04T13:09:11;96741.72;;;2.31;55.20
10992;BME280;5549;47.028;15.514;2023-12-04T13:11:44;96745.03;;;1.99;56.77
10992;BME280;5549;47.028;15.514;2023-12-04T13:14:13;96731.38;;;2.31;56.01
10992;BME280;5549;47.028;15.514;2023-12-04T13:16:41;96729.09;;;2.42;56.33